KOTH

Southwest Oregon Regional Airport

Airport
ICAO code
KOTH
Summary
ICAO Region
NAM
ICAO Territory
Location

North Bend, Oregon,

Coordinates
43° 24' 59" N , 124° 14' 48" W
KCC
Airport BS
Bird Strike
Metar
KOTH 160556Z AUTO 02005KT 10SM FEW025 SCT030 08/06 A3043 RMK AO2 SLP305 T00830056 10122 20083 51011

Description

Southwest Oregon Regional Airport, formerly North Bend Municipal Airport, is a public use airport located in North Bend, Coos County, Oregon.

Climatology

Oceanic/Dry-summer subtropical ”Mediterranean" climate (Köppen climate classification Csb) - characterized by warm, dry summers and mild winters.

Runways

Designator Length Width Surface Rops
13/31 1363 46 ASP Yes/Yes
4/22 1622 46 ASP Yes/Yes

Airport map

Aerial View

SKYbrary Partners:

Safety knowledge contributed by: